createdAt,value
2023-04-16T00:00:16.800Z,97232.47
2023-04-16T00:02:43.375Z,97232.00
2023-04-16T00:05:10.175Z,97229.63
2023-04-16T00:07:36.693Z,97235.31
2023-04-16T00:10:03.223Z,97235.81
2023-04-16T00:12:29.825Z,97223.34
2023-04-16T00:14:56.304Z,97226.50
2023-04-16T00:17:22.846Z,97224.41
2023-04-16T00:19:49.363Z,97227.44
2023-04-16T00:22:15.943Z,97232.16
2023-04-16T00:24:42.452Z,97231.25
2023-04-16T00:27:09.084Z,97237.50
2023-04-16T00:29:35.640Z,97235.16
2023-04-16T00:32:02.137Z,97233.75
2023-04-16T00:34:28.787Z,97235.16
2023-04-16T00:36:55.458Z,97237.50
2023-04-16T00:39:22.029Z,97235.16
2023-04-16T00:41:48.666Z,97232.47
2023-04-16T00:44:15.250Z,97231.69
2023-04-16T00:46:41.878Z,97232.31
2023-04-16T00:49:08.608Z,97232.16
2023-04-16T00:51:35.345Z,97230.16
2023-04-16T00:54:01.991Z,97239.69
2023-04-16T00:56:28.615Z,97233.56
2023-04-16T00:58:55.111Z,97231.56
2023-04-16T01:01:21.696Z,97231.88
2023-04-16T01:03:48.520Z,97227.59
2023-04-16T01:06:15.267Z,97229.69
2023-04-16T01:08:41.880Z,97228.53
2023-04-16T01:11:08.338Z,97225.53
2023-04-16T01:13:34.881Z,97221.63
2023-04-16T01:16:01.509Z,97228.41
2023-04-16T01:18:28.028Z,97226.81
2023-04-16T01:20:54.518Z,97229.69
2023-04-16T01:23:21.038Z,97228.28
2023-04-16T01:25:47.590Z,97236.25
2023-04-16T01:28:14.108Z,97230.88
2023-04-16T01:30:40.695Z,97238.50
2023-04-16T01:33:07.214Z,97234.84
2023-04-16T01:35:33.674Z,97244.16
2023-04-16T01:38:00.158Z,97232.81
2023-04-16T01:40:26.643Z,97242.06
2023-04-16T01:42:53.099Z,97241.78
2023-04-16T01:45:19.579Z,97239.88
2023-04-16T01:47:46.108Z,97237.03
2023-04-16T01:50:12.580Z,97244.25
2023-04-16T01:52:39.165Z,97237.50
2023-04-16T01:55:05.759Z,97244.16
2023-04-16T01:57:32.335Z,97240.25
2023-04-16T01:59:58.873Z,97247.31
2023-04-16T02:02:25.492Z,97240.50
2023-04-16T02:04:52.091Z,97244.75
2023-04-16T02:07:18.630Z,97256.13
2023-04-16T02:09:45.252Z,97254.97
2023-04-16T02:12:11.800Z,97255.16
2023-04-16T02:14:38.372Z,97255.63
2023-04-16T02:17:04.945Z,97257.97
2023-04-16T02:19:31.403Z,97245.53
2023-04-16T02:21:57.915Z,97252.47
2023-04-16T02:24:24.346Z,97248.22
2023-04-16T02:26:50.815Z,97251.06
2023-04-16T02:29:17.293Z,97255.75
2023-04-16T02:31:43.806Z,97260.97
2023-04-16T02:34:10.384Z,97269.31
2023-04-16T02:36:36.965Z,97261.59
2023-04-16T02:39:03.458Z,97270.41
2023-04-16T02:41:30.040Z,97260.19
2023-04-16T02:43:56.631Z,97244.94
2023-04-16T02:46:23.285Z,97249.50
2023-04-16T02:48:52.662Z,97247.13
2023-04-16T02:51:19.176Z,97235.94
2023-04-16T02:53:45.699Z,97242.06
2023-04-16T02:56:12.239Z,97247.91
2023-04-16T02:58:38.812Z,97240.06
2023-04-16T03:01:05.503Z,97251.69
2023-04-16T03:03:32.044Z,97257.34
2023-04-16T03:05:58.556Z,97256.53
2023-04-16T03:08:28.020Z,97257.03
2023-04-16T03:10:54.632Z,97243.16
2023-04-16T03:13:21.173Z,97258.13
2023-04-16T03:15:47.770Z,97251.38
2023-04-16T03:18:14.270Z,97243.06
2023-04-16T03:20:40.818Z,97248.22
2023-04-16T03:23:07.341Z,97242.25
2023-04-16T03:25:33.863Z,97245.38
2023-04-16T03:28:00.436Z,97240.69
2023-04-16T03:30:26.967Z,97240.97
2023-04-16T03:32:53.568Z,97243.50
2023-04-16T03:35:20.185Z,97240.06
2023-04-16T03:37:46.695Z,97240.19
2023-04-16T03:40:13.295Z,97247.72
2023-04-16T03:42:39.874Z,97250.47
2023-04-16T03:45:06.537Z,97248.88
2023-04-16T03:47:33.212Z,97251.38
2023-04-16T03:49:59.759Z,97245.25
2023-04-16T03:52:26.229Z,97241.16
2023-04-16T03:54:52.720Z,97243.16
2023-04-16T03:57:19.199Z,97237.22
2023-04-16T03:59:45.679Z,97244.63
2023-04-16T04:02:12.186Z,97246.50
2023-04-16T04:04:38.910Z,97247.59
2023-04-16T04:07:05.488Z,97243.06
2023-04-16T04:09:32.112Z,97239.41
2023-04-16T04:11:58.610Z,97239.09
2023-04-16T04:14:25.240Z,97244.03
2023-04-16T04:16:51.753Z,97244.63
2023-04-16T04:19:18.210Z,97242.88
2023-04-16T04:21:44.789Z,97251.97
2023-04-16T04:24:11.329Z,97247.59
2023-04-16T04:26:37.943Z,97249.00
2023-04-16T04:29:04.635Z,97254.84
2023-04-16T04:31:31.181Z,97251.88
2023-04-16T04:33:57.618Z,97259.69
2023-04-16T04:36:24.146Z,97260.00
2023-04-16T04:38:50.760Z,97256.19
2023-04-16T04:41:17.309Z,97251.63
2023-04-16T04:43:43.784Z,97253.75
2023-04-16T04:46:10.398Z,97254.66
2023-04-16T04:48:36.953Z,97256.88
2023-04-16T04:51:05.005Z,97261.59
2023-04-16T04:53:32.016Z,97268.09
2023-04-16T04:56:05.506Z,97269.59
2023-04-16T04:58:39.027Z,97264.56
2023-04-16T05:01:05.647Z,97270.69
2023-04-16T05:03:32.309Z,97264.56
2023-04-16T05:05:58.867Z,97278.28
2023-04-16T05:08:25.346Z,97262.97
2023-04-16T05:10:51.812Z,97267.88
2023-04-16T05:13:18.282Z,97270.78
2023-04-16T05:15:44.709Z,97276.63
2023-04-16T05:18:11.175Z,97269.50
2023-04-16T05:20:37.740Z,97271.97
2023-04-16T05:23:04.273Z,97271.97
2023-04-16T05:25:30.764Z,97280.19
2023-04-16T05:27:57.296Z,97279.09
2023-04-16T05:30:23.739Z,97278.50
2023-04-16T05:32:50.285Z,97278.81
2023-04-16T05:35:17.691Z,97272.84
2023-04-16T05:37:44.308Z,97274.91
2023-04-16T05:40:10.835Z,97283.34
2023-04-16T05:42:37.411Z,97275.03
2023-04-16T05:45:03.929Z,97271.94
2023-04-16T05:47:30.436Z,97280.69
2023-04-16T05:49:56.854Z,97275.53
2023-04-16T05:52:23.319Z,97271.88
2023-04-16T05:54:49.816Z,97269.44
2023-04-16T05:57:16.448Z,97270.06
2023-04-16T05:59:43.171Z,97279.19
2023-04-16T06:02:09.857Z,97286.22
2023-04-16T06:04:36.338Z,97281.06
2023-04-16T06:07:02.837Z,97277.16
2023-04-16T06:09:29.273Z,97284.53
2023-04-16T06:11:55.741Z,97285.31
2023-04-16T06:14:22.198Z,97287.63
2023-04-16T06:16:48.684Z,97288.91
2023-04-16T06:19:15.115Z,97290.91
2023-04-16T06:21:41.589Z,97290.19
2023-04-16T06:24:08.077Z,97292.66
2023-04-16T06:26:34.535Z,97293.16
2023-04-16T06:29:01.003Z,97293.66
2023-04-16T06:31:27.604Z,97294.31
2023-04-16T06:33:54.359Z,97287.09
2023-04-16T06:36:20.825Z,97284.91
2023-04-16T06:38:47.279Z,97287.28
2023-04-16T06:41:13.751Z,97290.38
2023-04-16T06:43:40.215Z,97283.34
2023-04-16T06:46:06.620Z,97281.84
2023-04-16T06:48:33.067Z,97286.09
2023-04-16T06:50:59.490Z,97285.19
2023-04-16T06:53:26.015Z,97288.00
2023-04-16T06:55:52.496Z,97278.75
2023-04-16T06:58:19.045Z,97287.28
2023-04-16T07:00:45.505Z,97286.47
2023-04-16T07:03:12.269Z,97287.13
2023-04-16T07:05:38.933Z,97295.72
2023-04-16T07:08:05.472Z,97298.56
2023-04-16T07:10:31.963Z,97291.97
2023-04-16T07:12:58.512Z,97297.78
2023-04-16T07:15:24.927Z,97303.13
2023-04-16T07:17:51.463Z,97304.41
2023-04-16T07:20:17.977Z,97289.81
2023-04-16T07:22:44.447Z,97301.28
2023-04-16T07:25:10.914Z,97303.97
2023-04-16T07:27:37.351Z,97297.22
2023-04-16T07:30:03.758Z,97305.84
2023-04-16T07:32:30.305Z,97307.84
2023-04-16T07:34:56.774Z,97307.44
2023-04-16T07:37:23.269Z,97309.47
2023-04-16T07:39:49.812Z,97306.25
2023-04-16T07:42:16.284Z,97320.50
2023-04-16T07:44:42.826Z,97317.84
2023-04-16T07:47:09.309Z,97316.84
2023-04-16T07:49:35.785Z,97320.31
2023-04-16T07:52:02.290Z,97315.16
2023-04-16T07:54:29.170Z,97325.88
2023-04-16T07:56:55.881Z,97322.63
2023-04-16T07:59:24.058Z,97322.78
2023-04-16T08:01:51.081Z,97322.63
2023-04-16T08:04:17.719Z,97323.19
2023-04-16T08:06:44.304Z,97331.22
2023-04-16T08:09:11.136Z,97332.13
2023-04-16T08:11:37.804Z,97334.19
2023-04-16T08:14:04.283Z,97331.72
2023-04-16T08:16:30.813Z,97327.84
2023-04-16T08:18:57.398Z,97338.84
2023-04-16T08:21:23.877Z,97330.34
2023-04-16T08:23:50.333Z,97329.72
2023-04-16T08:26:16.842Z,97333.63
2023-04-16T08:28:43.256Z,97332.00
2023-04-16T08:31:09.768Z,97330.00
2023-04-16T08:33:36.327Z,97339.72
2023-04-16T08:36:02.801Z,97336.06
2023-04-16T08:38:29.321Z,97342.69
2023-04-16T08:40:55.867Z,97346.47
2023-04-16T08:43:22.347Z,97340.25
2023-04-16T08:45:48.772Z,97340.13
2023-04-16T08:48:15.278Z,97345.19
2023-04-16T08:50:41.713Z,97339.94
2023-04-16T08:53:09.806Z,97349.94
2023-04-16T08:55:36.327Z,97352.97
2023-04-16T08:58:02.784Z,97355.81
2023-04-16T09:00:29.314Z,97362.34
2023-04-16T09:02:55.956Z,97360.22
2023-04-16T09:05:22.572Z,97363.81
2023-04-16T09:07:49.009Z,97364.91
2023-04-16T09:10:15.474Z,97371.34
2023-04-16T09:12:41.913Z,97367.88
2023-04-16T09:15:08.403Z,97375.41
2023-04-16T09:17:34.929Z,97373.84
2023-04-16T09:20:01.479Z,97373.53
2023-04-16T09:22:28.017Z,97382.25
2023-04-16T09:24:54.747Z,97377.31
2023-04-16T09:27:21.310Z,97372.38
2023-04-16T09:29:47.845Z,97375.94
2023-04-16T09:32:14.423Z,97376.75
2023-04-16T09:34:40.903Z,97382.34
2023-04-16T09:37:07.429Z,97380.88
2023-04-16T09:39:33.891Z,97381.06
2023-04-16T09:42:00.326Z,97375.00
2023-04-16T09:44:26.773Z,97371.94
2023-04-16T09:46:53.204Z,97377.91
2023-04-16T09:49:19.689Z,97382.09
2023-04-16T09:51:46.136Z,97386.00
2023-04-16T09:54:13.662Z,97385.22
2023-04-16T09:56:40.348Z,97382.47
2023-04-16T09:59:06.912Z,97377.78
2023-04-16T10:01:33.398Z,97379.38
2023-04-16T10:04:00.031Z,97382.72
2023-04-16T10:06:26.739Z,97384.63
2023-04-16T10:08:53.225Z,97389.72
2023-04-16T10:11:19.762Z,97390.75
2023-04-16T10:13:46.279Z,97391.84
2023-04-16T10:16:12.768Z,97388.88
2023-04-16T10:18:39.322Z,97358.56
2023-04-16T10:21:05.792Z,97365.69
2023-04-16T10:23:32.240Z,97362.25
2023-04-16T10:25:58.734Z,97361.44
2023-04-16T10:28:25.288Z,97368.00
2023-04-16T10:30:51.811Z,97363.63
2023-04-16T10:33:18.325Z,97366.13
2023-04-16T10:35:45.725Z,97370.22
2023-04-16T10:38:14.754Z,97371.97
2023-04-16T10:40:41.254Z,97374.47
2023-04-16T10:43:07.717Z,97373.97
2023-04-16T10:45:34.208Z,97389.53
2023-04-16T10:48:00.665Z,97390.19
2023-04-16T10:50:27.262Z,97393.38
2023-04-16T10:52:53.761Z,97395.25
2023-04-16T10:55:20.338Z,97395.16
2023-04-16T10:57:46.768Z,97390.78
2023-04-16T11:00:13.275Z,97394.06
2023-04-16T11:02:40.075Z,97387.63
2023-04-16T11:05:06.652Z,97397.44
2023-04-16T11:07:33.163Z,97395.25
2023-04-16T11:09:59.992Z,97396.22
2023-04-16T11:12:26.648Z,97400.00
2023-04-16T11:14:53.090Z,97391.66
2023-04-16T11:17:19.573Z,97400.59
2023-04-16T11:19:46.085Z,97397.50
2023-04-16T11:22:12.563Z,97395.94
2023-04-16T11:24:39.014Z,97394.03
2023-04-16T11:27:05.500Z,97392.94
2023-04-16T11:29:31.977Z,97397.75
2023-04-16T11:31:58.514Z,97390.63
2023-04-16T11:34:25.032Z,97395.19
2023-04-16T11:36:51.495Z,97395.19
2023-04-16T11:39:18.075Z,97393.00
2023-04-16T11:41:44.576Z,97398.41
2023-04-16T11:44:11.040Z,97398.22
2023-04-16T11:46:37.571Z,97391.28
2023-04-16T11:49:04.111Z,97389.28
2023-04-16T11:51:30.976Z,97389.66
2023-04-16T11:53:57.524Z,97389.84
2023-04-16T11:56:24.004Z,97384.78
2023-04-16T11:58:50.575Z,97386.97
2023-04-16T12:01:17.131Z,97388.97
2023-04-16T12:03:43.903Z,97390.25
2023-04-16T12:06:10.757Z,97389.84
2023-04-16T12:08:37.230Z,97387.00
2023-04-16T12:11:03.788Z,97387.47
2023-04-16T12:13:30.307Z,97391.84
2023-04-16T12:15:56.795Z,97388.69
2023-04-16T12:18:23.255Z,97385.50
2023-04-16T12:20:49.809Z,97388.50
2023-04-16T12:23:16.260Z,97390.00
2023-04-16T12:25:42.750Z,97390.06
2023-04-16T12:28:09.238Z,97386.50
2023-04-16T12:30:35.718Z,97392.94
2023-04-16T12:33:02.276Z,97387.09
2023-04-16T12:35:28.746Z,97395.84
2023-04-16T12:37:55.263Z,97395.66
2023-04-16T12:40:21.741Z,97390.88
2023-04-16T12:42:48.190Z,97393.25
2023-04-16T12:45:14.701Z,97388.31
2023-04-16T12:47:41.131Z,97387.53
2023-04-16T12:50:07.665Z,97383.44
2023-04-16T12:52:34.245Z,97387.53
2023-04-16T12:55:00.750Z,97383.06
2023-04-16T12:57:27.193Z,97379.56
2023-04-16T12:59:53.806Z,97384.91
2023-04-16T13:02:20.418Z,97374.69
2023-04-16T13:04:47.119Z,97375.16
2023-04-16T13:07:13.730Z,97381.78
2023-04-16T13:09:40.249Z,97377.72
2023-04-16T13:12:06.737Z,97378.69
2023-04-16T13:14:33.191Z,97378.88
2023-04-16T13:16:59.702Z,97377.38
2023-04-16T13:19:26.220Z,97367.63
2023-04-16T13:21:52.699Z,97367.84
2023-04-16T13:24:19.194Z,97371.19
2023-04-16T13:26:48.676Z,97372.41
2023-04-16T13:29:15.202Z,97371.91
2023-04-16T13:31:41.785Z,97371.31
2023-04-16T13:34:08.334Z,97376.66
2023-04-16T13:36:34.959Z,97368.91
2023-04-16T13:39:01.604Z,97370.81
2023-04-16T13:41:28.064Z,97372.31
2023-04-16T13:43:54.620Z,97374.88
2023-04-16T13:46:21.252Z,97361.78
2023-04-16T13:48:48.009Z,97368.66
2023-04-16T13:51:14.622Z,97367.88
2023-04-16T13:53:41.248Z,97362.41
2023-04-16T13:56:08.218Z,97355.28
2023-04-16T13:58:34.802Z,97351.31
2023-04-16T14:01:01.844Z,97360.56
2023-04-16T14:03:30.286Z,97349.72
2023-04-16T14:05:59.958Z,97357.09
2023-04-16T14:08:26.658Z,97352.72
2023-04-16T14:10:55.140Z,97351.81
2023-04-16T14:13:22.636Z,97347.84
2023-04-16T14:15:49.503Z,97361.22
2023-04-16T14:18:16.064Z,97354.97
2023-04-16T14:20:42.848Z,97356.63
2023-04-16T14:23:09.657Z,97355.34
2023-04-16T14:25:36.142Z,97358.19
2023-04-16T14:28:02.673Z,97358.31
2023-04-16T14:30:29.352Z,97361.72
2023-04-16T14:32:55.971Z,97362.31
2023-04-16T14:35:22.736Z,97364.69
2023-04-16T14:37:49.260Z,97357.41
2023-04-16T14:40:16.133Z,97369.19
2023-04-16T14:42:42.825Z,97373.75
2023-04-16T14:45:09.350Z,97370.44
2023-04-16T14:47:35.929Z,97362.75
2023-04-16T14:50:02.870Z,97356.91
2023-04-16T14:52:29.343Z,97364.44
2023-04-16T14:54:55.771Z,97361.00
2023-04-16T14:57:22.310Z,97363.34
2023-04-16T14:59:49.143Z,97360.25
2023-04-16T15:02:19.078Z,97359.34
2023-04-16T15:04:45.676Z,97366.47
2023-04-16T15:07:12.243Z,97365.00
2023-04-16T15:09:39.005Z,97349.97
2023-04-16T15:12:05.581Z,97356.91
2023-04-16T15:14:32.221Z,97352.34
2023-04-16T15:16:58.763Z,97344.81
2023-04-16T15:19:25.378Z,97358.03
2023-04-16T15:21:51.959Z,97351.25
2023-04-16T15:24:18.463Z,97351.00
2023-04-16T15:26:44.929Z,97355.28
2023-04-16T15:29:11.443Z,97354.47
2023-04-16T15:31:38.107Z,97351.81
2023-04-16T15:34:04.618Z,97361.22
2023-04-16T15:36:31.235Z,97362.16
2023-04-16T15:38:57.708Z,97361.22
2023-04-16T15:41:24.455Z,97362.81
2023-04-16T15:43:52.232Z,97364.34
2023-04-16T15:46:18.893Z,97358.78
2023-04-16T15:48:45.470Z,97357.53
2023-04-16T15:51:12.079Z,97363.06
2023-04-16T15:53:38.773Z,97365.44
2023-04-16T15:56:05.334Z,97365.44
2023-04-16T15:58:31.867Z,97364.53
2023-04-16T16:00:58.504Z,97366.53
2023-04-16T16:03:25.365Z,97370.00
2023-04-16T16:05:51.923Z,97368.09
2023-04-16T16:08:18.571Z,97371.22
2023-04-16T16:10:45.089Z,97375.13
2023-04-16T16:13:11.647Z,97372.03
2023-04-16T16:15:38.187Z,97372.13
2023-04-16T16:18:04.765Z,97379.97
2023-04-16T16:20:31.429Z,97382.84
2023-04-16T16:22:58.056Z,97381.88
2023-04-16T16:25:24.934Z,97385.81
2023-04-16T16:27:51.514Z,97385.34
2023-04-16T16:30:17.939Z,97384.25
2023-04-16T16:32:44.431Z,97388.00
2023-04-16T16:35:10.915Z,97389.91
2023-04-16T16:37:37.405Z,97394.44
2023-04-16T16:40:03.894Z,97390.97
2023-04-16T16:42:30.477Z,97400.41
2023-04-16T16:44:57.631Z,97397.84
2023-04-16T16:47:24.259Z,97403.75
2023-04-16T16:49:50.811Z,97402.13
2023-04-16T16:52:17.258Z,97403.41
2023-04-16T16:54:43.842Z,97405.59
2023-04-16T16:57:10.392Z,97402.47
2023-04-16T16:59:36.842Z,97402.59
2023-04-16T17:02:03.329Z,97409.03
2023-04-16T17:04:29.919Z,97410.69
2023-04-16T17:06:56.551Z,97410.31
2023-04-16T17:09:23.122Z,97408.63
2023-04-16T17:11:49.637Z,97409.13
2023-04-16T17:14:16.136Z,97414.16
2023-04-16T17:16:42.626Z,97411.59
2023-04-16T17:19:09.508Z,97420.31
2023-04-16T17:21:39.245Z,97411.50
2023-04-16T17:24:05.744Z,97415.19
2023-04-16T17:26:32.259Z,97421.81
2023-04-16T17:28:58.791Z,97416.06
2023-04-16T17:31:27.136Z,97423.41
2023-04-16T17:33:54.114Z,97416.97
2023-04-16T17:36:20.821Z,97417.94
2023-04-16T17:38:47.220Z,97418.84
2023-04-16T17:41:13.998Z,97421.41
2023-04-16T17:43:40.719Z,97420.72
2023-04-16T17:46:07.171Z,97422.13
2023-04-16T17:48:33.671Z,97422.31
2023-04-16T17:51:00.154Z,97425.41
2023-04-16T17:53:26.697Z,97418.66
2023-04-16T17:55:55.232Z,97426.09
2023-04-16T17:58:23.125Z,97419.53
2023-04-16T18:00:49.633Z,97416.34
2023-04-16T18:03:16.293Z,97430.03
2023-04-16T18:05:42.899Z,97425.13
2023-04-16T18:08:09.488Z,97426.41
2023-04-16T18:10:36.047Z,97440.06
2023-04-16T18:13:02.477Z,97431.00
2023-04-16T18:15:29.091Z,97428.16
2023-04-16T18:17:55.646Z,97423.22
2023-04-16T18:20:22.312Z,97421.84
2023-04-16T18:22:48.843Z,97429.44
2023-04-16T18:25:16.140Z,97433.00
2023-04-16T18:27:42.836Z,97426.06
2023-04-16T18:30:19.572Z,97424.00
2023-04-16T18:33:11.532Z,97426.56
2023-04-16T18:35:36.499Z,97422.44
2023-04-16T18:38:02.964Z,97429.25
2023-04-16T18:40:29.533Z,97424.03
2023-04-16T18:42:56.080Z,97425.16
2023-04-16T18:45:22.608Z,97430.66
2023-04-16T18:47:49.141Z,97432.53
2023-04-16T18:50:15.614Z,97437.56
2023-04-16T18:52:42.154Z,97440.25
2023-04-16T18:55:08.652Z,97440.72
2023-04-16T18:57:35.146Z,97445.22
2023-04-16T19:00:01.652Z,97443.53
2023-04-16T19:02:28.280Z,97445.28
2023-04-16T19:04:54.777Z,97451.28
2023-04-16T19:07:21.291Z,97456.28
2023-04-16T19:09:47.817Z,97456.50
2023-04-16T19:12:14.304Z,97453.50
2023-04-16T19:14:40.729Z,97459.59
2023-04-16T19:17:07.319Z,97464.31
2023-04-16T19:19:33.880Z,97456.81
2023-04-16T19:22:00.536Z,97456.94
2023-04-16T19:24:27.138Z,97462.88
2023-04-16T19:26:53.642Z,97461.19
2023-04-16T19:29:20.134Z,97462.84
2023-04-16T19:31:46.635Z,97464.31
2023-04-16T19:34:13.129Z,97463.72
2023-04-16T19:36:39.602Z,97466.03
2023-04-16T19:39:06.229Z,97470.47
2023-04-16T19:41:32.795Z,97465.44
2023-04-16T19:43:59.479Z,97473.28
2023-04-16T19:46:25.999Z,97472.34
2023-04-16T19:48:52.507Z,97468.88
2023-04-16T19:51:21.935Z,97473.16
2023-04-16T19:53:48.503Z,97467.78
2023-04-16T19:56:15.137Z,97465.06
2023-04-16T19:58:41.787Z,97455.63
2023-04-16T20:01:08.358Z,97462.34
2023-04-16T20:03:35.045Z,97459.97
2023-04-16T20:06:01.726Z,97460.97
2023-04-16T20:08:28.299Z,97462.16
2023-04-16T20:10:54.868Z,97458.00
2023-04-16T20:13:21.426Z,97453.94
2023-04-16T20:15:47.950Z,97451.13
2023-04-16T20:18:14.444Z,97442.47
2023-04-16T20:20:40.967Z,97450.94
2023-04-16T20:23:07.528Z,97449.38
2023-04-16T20:25:34.081Z,97440.25
2023-04-16T20:28:00.726Z,97441.97
2023-04-16T20:30:27.283Z,97452.66
2023-04-16T20:32:53.917Z,97450.84
2023-04-16T20:35:20.468Z,97440.94
2023-04-16T20:37:46.993Z,97443.91
2023-04-16T20:40:13.483Z,97443.91
2023-04-16T20:42:40.092Z,97450.66
2023-04-16T20:45:06.686Z,97444.03
2023-04-16T20:47:33.259Z,97440.13
2023-04-16T20:49:59.835Z,97441.72
2023-04-16T20:52:26.341Z,97436.38
2023-04-16T20:54:52.836Z,97440.34
2023-04-16T20:57:19.372Z,97434.78
2023-04-16T20:59:45.862Z,97431.84
2023-04-16T21:02:12.537Z,97425.88
2023-04-16T21:04:39.265Z,97422.59
2023-04-16T21:07:05.919Z,97420.84
2023-04-16T21:09:32.383Z,97421.72
2023-04-16T21:11:59.005Z,97418.69
2023-04-16T21:14:25.568Z,97421.41
2023-04-16T21:16:52.118Z,97409.84
2023-04-16T21:19:18.719Z,97412.69
2023-04-16T21:21:45.245Z,97398.03
2023-04-16T21:24:11.775Z,97403.47
2023-04-16T21:26:38.334Z,97407.53
2023-04-16T21:29:04.999Z,97404.00
2023-04-16T21:31:31.678Z,97402.91
2023-04-16T21:33:58.297Z,97409.03
2023-04-16T21:36:24.779Z,97409.84
2023-04-16T21:38:51.305Z,97416.00
2023-04-16T21:41:17.780Z,97413.22
2023-04-16T21:43:44.282Z,97418.38
2023-04-16T21:46:10.825Z,97416.28
2023-04-16T21:48:37.423Z,97406.56
2023-04-16T21:51:04.018Z,97411.13
2023-04-16T21:53:30.598Z,97403.56
2023-04-16T21:55:57.091Z,97406.56
2023-04-16T21:58:23.552Z,97402.47
2023-04-16T22:00:50.057Z,97399.94
2023-04-16T22:03:16.808Z,97397.63
2023-04-16T22:05:43.376Z,97399.81
2023-04-16T22:08:23.211Z,97406.13
2023-04-16T22:10:50.403Z,97397.53
2023-04-16T22:13:16.884Z,97396.44
2023-04-16T22:15:43.366Z,97392.50
2023-04-16T22:18:09.954Z,97390.59
2023-04-16T22:20:36.441Z,97389.59
2023-04-16T22:23:03.011Z,97394.88
2023-04-16T22:25:29.595Z,97392.97
2023-04-16T22:27:56.100Z,97381.50
2023-04-16T22:30:22.673Z,97381.97
2023-04-16T22:32:49.234Z,97378.88
2023-04-16T22:35:15.844Z,97374.94
2023-04-16T22:37:42.411Z,97369.19
2023-04-16T22:40:09.062Z,97363.13
2023-04-16T22:42:35.587Z,97362.53
2023-04-16T22:45:02.156Z,97355.81
2023-04-16T22:47:28.725Z,97360.94
2023-04-16T22:49:55.242Z,97355.25
2023-04-16T22:52:21.827Z,97353.06
2023-04-16T22:54:48.345Z,97347.00
2023-04-16T22:57:14.874Z,97356.31
2023-04-16T22:59:41.448Z,97361.66
2023-04-16T23:02:08.034Z,97361.75
2023-04-16T23:04:34.668Z,97359.66
2023-04-16T23:07:01.145Z,97360.75
2023-04-16T23:09:27.708Z,97349.16
2023-04-16T23:11:54.306Z,97357.28
2023-04-16T23:14:20.875Z,97348.81
2023-04-16T23:16:47.390Z,97342.22
2023-04-16T23:19:14.032Z,97343.81
2023-04-16T23:21:40.602Z,97350.25
2023-04-16T23:24:07.200Z,97343.13
2023-04-16T23:26:33.690Z,97345.50
2023-04-16T23:29:00.157Z,97355.03
2023-04-16T23:31:26.628Z,97349.16
2023-04-16T23:33:53.147Z,97337.97
2023-04-16T23:36:19.642Z,97342.81
2023-04-16T23:38:46.165Z,97339.34
2023-04-16T23:41:12.647Z,97338.09
2023-04-16T23:43:39.189Z,97328.06
2023-04-16T23:46:05.784Z,97328.66
2023-04-16T23:48:32.272Z,97326.78
2023-04-16T23:50:58.818Z,97332.75
2023-04-16T23:53:25.306Z,97333.22
2023-04-16T23:55:51.932Z,97328.31
2023-04-16T23:58:18.475Z,97323.56
